Bookmark and Share
Track history (hours):
 

P/v Golden Gate

More information available from US FCC via Universal Licensing System and Coast Guard Vessel Documentation Center.

Last reported at 2014-Apr-19 21:33 UTC. Time now 2014-Apr-19 22:08 UTC.
Position N 37°47' W 122°23'.

Length 23 m; draft 2 m.

Type: Pilot. MMSI: 367370010.

NotesDate/timePositionNaut miles runAvg speedWind from/ knotsBaromVisibWave heightAir tempDewpointWater temp
2014-Apr-19 21:33N 37°47' W 122°23'1 1.3
2014-Apr-19 20:33N 37°48' W 122°24'0 0.0
2014-Apr-19 19:33N 37°48' W 122°24'0 0.0
2014-Apr-19 18:33N 37°48' W 122°24'0 0.0
2014-Apr-19 17:33N 37°48' W 122°24'0 0.0
2014-Apr-19 16:33N 37°48' W 122°24'0 0.0
2014-Apr-19 15:33N 37°48' W 122°24'0 0.0
2014-Apr-19 14:33N 37°48' W 122°24'0 0.0
2014-Apr-19 13:33N 37°48' W 122°24'3 2.6
2014-Apr-19 12:34N 37°47' W 122°21'3 2.6
2014-Apr-19 11:34N 37°48' W 122°24'0 0.0
2014-Apr-19 10:33N 37°48' W 122°24'0 0.0
2014-Apr-19 09:34N 37°48' W 122°24'0 0.0
2014-Apr-19 08:33N 37°48' W 122°24'0 0.0
2014-Apr-19 07:33N 37°48' W 122°24'0 0.0
2014-Apr-19 06:33N 37°48' W 122°24'0 0.0
2014-Apr-19 05:33N 37°48' W 122°24'0 0.0
2014-Apr-19 04:34N 37°48' W 122°24'10 9.6
2014-Apr-19 03:33N 37°47' W 122°36'10 9.9
2014-Apr-19 02:33N 37°48' W 122°24'0 0.0
2014-Apr-19 01:33N 37°48' W 122°24'0 0.0
2014-Apr-19 00:33N 37°48' W 122°24'3 2.7
2014-Apr-18 23:34N 37°46' W 122°21'2 2.2
2014-Apr-18 22:33N 37°48' W 122°21'3 2.5
2014-Apr-18 21:33N 37°48' W 122°24'0 0.0
2014-Apr-18 20:33N 37°48' W 122°24'0 0.1
2014-Apr-18 19:34N 37°48' W 122°24'1 1.2
2014-Apr-18 18:33N 37°49' W 122°25'1 1.2
2014-Apr-18 17:33N 37°48' W 122°24'6 6.3
2014-Apr-18 16:33N 37°54' W 122°24'1 0.7
2014-Apr-18 14:33N 37°55' W 122°22'0 0.0
2014-Apr-18 13:33N 37°55' W 122°22'0 0.0
2014-Apr-18 12:33N 37°55' W 122°22'0 0.0
2014-Apr-18 11:33N 37°55' W 122°22'0 0.0
2014-Apr-18 10:33N 37°55' W 122°22'0 0.0
2014-Apr-18 09:33N 37°55' W 122°22'0 0.0
2014-Apr-18 08:33N 37°55' W 122°22'0 0.0
2014-Apr-18 07:33N 37°55' W 122°22'0 0.0
2014-Apr-18 06:33N 37°55' W 122°22'0 0.0
2014-Apr-18 05:33N 37°55' W 122°22'0 0.0
2014-Apr-18 04:33N 37°55' W 122°22'0 0.0
2014-Apr-18 03:33N 37°55' W 122°22'0 0.0
2014-Apr-18 02:33N 37°55' W 122°22'0 0.0
2014-Apr-18 01:33N 37°55' W 122°22'0 0.0
2014-Apr-18 00:33N 37°55' W 122°22'0 0.0
2014-Apr-17 23:32N 37°55' W 122°22'0 0.0
2014-Apr-17 22:33N 37°55' W 122°22'0 0.0
2014-Apr-17 21:32N 37°55' W 122°22'0 0.0
2014-Apr-17 20:31N 37°55' W 122°22'0 0.0
2014-Apr-17 19:27N 37°55' W 122°22'0 0.0
2014-Apr-17 18:21N 37°55' W 122°22'0 0.0
2014-Apr-17 17:32N 37°55' W 122°22'0 0.0
2014-Apr-17 16:27N 37°55' W 122°22'0 0.0
2014-Apr-17 15:33N 37°55' W 122°22'0 0.0
2014-Apr-17 14:33N 37°55' W 122°22'0 0.0
2014-Apr-17 13:33N 37°55' W 122°22'0 0.0
2014-Apr-17 12:33N 37°55' W 122°22'0 0.0
2014-Apr-17 11:33N 37°55' W 122°22'0 0.0
2014-Apr-17 10:33N 37°55' W 122°22'0 0.0
2014-Apr-17 09:33N 37°55' W 122°22'0 0.0
2014-Apr-17 08:33N 37°55' W 122°22'0 0.0
2014-Apr-17 07:33N 37°55' W 122°22'0 0.0
2014-Apr-17 06:31N 37°55' W 122°22'0 0.0
2014-Apr-17 05:33N 37°55' W 122°22'0 0.0
2014-Apr-17 04:33N 37°55' W 122°22'0 0.0
2014-Apr-17 03:33N 37°55' W 122°22'0 0.0
2014-Apr-17 02:33N 37°55' W 122°22'0 0.0
2014-Apr-17 01:33N 37°55' W 122°22'0 0.0
2014-Apr-17 00:33N 37°55' W 122°22'0 0.0
2014-Apr-16 23:33N 37°55' W 122°22'0 0.0
2014-Apr-16 22:32N 37°55' W 122°22'0 0.0
2014-Apr-16 21:33N 37°55' W 122°22'0 0.0
2014-Apr-16 20:33N 37°55' W 122°22'0 0.0
2014-Apr-16 19:33N 37°55' W 122°22'0 0.0
2014-Apr-16 18:33N 37°55' W 122°22'0 0.0
2014-Apr-16 17:33N 37°55' W 122°22'0 0.0
2014-Apr-16 16:33N 37°55' W 122°22'0 0.0
2014-Apr-16 15:33N 37°55' W 122°22'0 0.0
2014-Apr-16 14:33N 37°55' W 122°22'0 0.0
2014-Apr-16 13:33N 37°55' W 122°22'0 0.0
2014-Apr-16 12:33N 37°55' W 122°22'0 0.0
2014-Apr-16 11:33N 37°55' W 122°22'0 0.0
2014-Apr-16 10:33N 37°55' W 122°22'0 0.0
2014-Apr-16 09:33N 37°55' W 122°22'0 0.0
2014-Apr-16 08:33N 37°55' W 122°22'0 0.0
2014-Apr-16 07:33N 37°55' W 122°22'0 0.0
2014-Apr-16 06:33N 37°55' W 122°22'0 0.0
2014-Apr-16 05:33N 37°55' W 122°22'0 0.0
2014-Apr-16 04:33N 37°55' W 122°22'0 0.0
2014-Apr-16 03:33N 37°55' W 122°22'0 0.0
2014-Apr-16 02:33N 37°55' W 122°22'0 0.0
2014-Apr-16 01:33N 37°55' W 122°22'0 0.0
2014-Apr-16 00:33N 37°55' W 122°22'0 0.0
2014-Apr-15 23:33N 37°55' W 122°22'0 0.0
2014-Apr-15 22:33N 37°55' W 122°22'0 0.0
2014-Apr-15 21:33N 37°55' W 122°22'0 0.0
2014-Apr-15 20:33N 37°55' W 122°22'0 0.0
2014-Apr-15 19:32N 37°55' W 122°22'0 0.0
2014-Apr-15 18:33N 37°55' W 122°22'0 0.0
2014-Apr-15 17:32N 37°55' W 122°22'0 0.0
2014-Apr-15 16:33N 37°55' W 122°22'0 0.0
2014-Apr-15 15:33N 37°55' W 122°22'0 0.0
2014-Apr-15 14:33N 37°55' W 122°22'0 0.0
2014-Apr-15 12:34N 37°55' W 122°22'0 0.0
2014-Apr-15 11:34N 37°55' W 122°22'0 0.0
2014-Apr-15 10:34N 37°55' W 122°22'0 0.0
2014-Apr-15 09:34N 37°55' W 122°22'0 0.0
2014-Apr-15 08:34N 37°55' W 122°22'0 0.0
2014-Apr-15 07:33N 37°55' W 122°22'0 0.0
2014-Apr-15 06:34N 37°55' W 122°22'0 0.0
2014-Apr-15 05:32N 37°55' W 122°22'0 0.0
2014-Apr-15 03:33N 37°55' W 122°22'0 0.0
2014-Apr-15 02:34N 37°55' W 122°22'0 0.0
2014-Apr-15 01:33N 37°55' W 122°22'0 0.0
2014-Apr-15 00:34N 37°55' W 122°22'0 0.0
2014-Apr-14 23:33N 37°55' W 122°22'0 0.0
2014-Apr-14 22:34N 37°55' W 122°22'0 0.0
2014-Apr-14 21:34N 37°55' W 122°22'0 0.0
2014-Apr-14 20:34N 37°55' W 122°22'0 0.0
2014-Apr-14 13:34N 37°55' W 122°22'7 3.6
2014-Apr-14 11:34N 37°48' W 122°24'2 2.2
2014-Apr-14 10:34N 37°48' W 122°21'2 2.2
2014-Apr-14 09:34N 37°48' W 122°24'0 0.0
2014-Apr-14 08:34N 37°48' W 122°24'5 5.2
2014-Apr-14 07:33N 37°48' W 122°30'5 5.4
2014-Apr-14 06:34N 37°48' W 122°24'2 2.1
2014-Apr-14 05:34N 37°47' W 122°22'4 0.5
2014-Apr-13 22:33N 37°49' W 122°25'5 4.7
2014-Apr-13 21:33N 37°46' W 122°21'1312.0
2014-Apr-13 20:29N 37°46' W 122°38'1313.7
2014-Apr-13 19:33N 37°48' W 122°22'2 1.5
2014-Apr-13 18:33N 37°48' W 122°24'0 0.0
2014-Apr-13 17:33N 37°48' W 122°24'0 0.0
2014-Apr-13 16:33N 37°48' W 122°24'0 0.0
2014-Apr-13 15:33N 37°48' W 122°24'0 0.0
2014-Apr-13 14:33N 37°48' W 122°24'3 2.7
2014-Apr-13 13:33N 37°47' W 122°21'3 2.7
2014-Apr-13 12:33N 37°48' W 122°24'0 0.0
2014-Apr-13 11:33N 37°48' W 122°24'0 0.0
2014-Apr-13 10:33N 37°48' W 122°24'0 0.0
2014-Apr-13 09:34N 37°48' W 122°24'0 0.0
2014-Apr-13 08:34N 37°48' W 122°24'0 0.0
2014-Apr-13 07:33N 37°48' W 122°24'0 0.4
2014-Apr-13 06:34N 37°48' W 122°24'0 0.4
2014-Apr-13 05:33N 37°48' W 122°24'2 1.6
2014-Apr-13 04:34N 37°47' W 122°22'1 1.2
2014-Apr-13 03:33N 37°48' W 122°22'1 1.2
2014-Apr-13 02:33N 37°48' W 122°24'0 0.1
2014-Apr-13 01:33N 37°48' W 122°24'3 3.3
2014-Apr-13 00:33N 37°46' W 122°20'3 3.3
2014-Apr-12 23:34N 37°48' W 122°24'1 1.2
2014-Apr-12 22:33N 37°48' W 122°22'1 0.6
2014-Apr-12 21:34N 37°48' W 122°23'3 2.9
2014-Apr-12 20:33N 37°46' W 122°20'4 3.6
2014-Apr-12 19:33N 37°48' W 122°24'0 0.0
2014-Apr-12 18:34N 37°48' W 122°24'0 0.0
2014-Apr-12 17:33N 37°48' W 122°24'0 0.0
2014-Apr-12 16:33N 37°48' W 122°24'1 1.2
2014-Apr-12 15:33N 37°49' W 122°25'4 4.2
2014-Apr-12 14:33N 37°48' W 122°20'3 3.0
2014-Apr-12 13:33N 37°48' W 122°24'0 0.0
2014-Apr-12 12:33N 37°48' W 122°24'0 0.0
2014-Apr-12 11:33N 37°48' W 122°24'7 6.6
2014-Apr-12 10:32N 37°47' W 122°32'7 6.9
2014-Apr-12 09:34N 37°48' W 122°24'0 0.0
2014-Apr-12 08:33N 37°48' W 122°24'4 3.8
2014-Apr-12 07:33N 37°45' W 122°21'7 6.5
2014-Apr-12 06:33N 37°49' W 122°27'6 5.9
2014-Apr-12 05:34N 37°48' W 122°20'1 0.5
2014-Apr-12 04:34N 37°48' W 122°19'3 3.4
2014-Apr-12 03:33N 37°48' W 122°24'0 0.0
2014-Apr-12 02:33N 37°48' W 122°24'0 0.0
2014-Apr-12 01:33N 37°48' W 122°24'3 3.0
2014-Apr-12 00:34N 37°46' W 122°22'3 3.0
2014-Apr-11 23:33N 37°48' W 122°24'0 0.0
2014-Apr-11 22:34N 37°48' W 122°24'3 2.9
2014-Apr-11 21:33N 37°46' W 122°21'1312.7
2014-Apr-11 20:33N 37°46' W 122°37'1111.0
2014-Apr-11 19:33N 37°48' W 122°24'3 3.5
2014-Apr-11 18:34N 37°46' W 122°21'3 3.2
2014-Apr-11 17:34N 37°48' W 122°24'1 1.2
2014-Apr-11 16:32N 37°49' W 122°25'1 1.3
2014-Apr-11 15:34N 37°48' W 122°24'2 2.1
2014-Apr-11 14:34N 37°48' W 122°21'1 1.5
2014-Apr-11 13:33N 37°47' W 122°22'1 1.5
2014-Apr-11 12:33N 37°48' W 122°24'2 1.7
2014-Apr-11 11:33N 37°49' W 122°26'2 2.2
2014-Apr-11 10:34N 37°48' W 122°23'1 0.6
2014-Apr-11 09:33N 37°48' W 122°23'1 0.9
2014-Apr-11 08:34N 37°48' W 122°24'0 0.0
2014-Apr-11 07:34N 37°48' W 122°24'0 0.0
2014-Apr-11 06:33N 37°48' W 122°24'0 0.0
2014-Apr-11 05:33N 37°48' W 122°24'0 0.0
2014-Apr-11 04:33N 37°48' W 122°24'5 5.4
2014-Apr-11 03:33N 37°48' W 122°31'1 0.4
2014-Apr-11 02:16N 37°48' W 122°30'6 8.5
2014-Apr-11 01:34N 37°48' W 122°22'1 1.1
2014-Apr-11 00:33N 37°48' W 122°24'0 0.0
2014-Apr-10 23:33N 37°48' W 122°24'10 9.8
2014-Apr-10 22:32N 37°46' W 122°36'1010.1
2014-Apr-10 21:33N 37°48' W 122°24'0 0.0
2014-Apr-10 20:33N 37°48' W 122°24'0 0.0
2014-Apr-10 19:33N 37°48' W 122°24'0 0.0
2014-Apr-10 18:33N 37°48' W 122°24'0 0.0
2014-Apr-10 17:33N 37°48' W 122°24'7 7.0
2014-Apr-10 16:32N 37°47' W 122°33'8 8.5
2014-Apr-10 15:33N 37°47' W 122°22'4 4.0
2014-Apr-10 14:33N 37°49' W 122°27'3 2.8
2014-Apr-10 13:33N 37°48' W 122°24'0 0.0
2014-Apr-10 12:33N 37°48' W 122°24'0 0.0
2014-Apr-10 11:33N 37°48' W 122°24'0 0.0
2014-Apr-10 10:33N 37°48' W 122°24'1 0.8
2014-Apr-10 09:33N 37°48' W 122°23'1 0.8
2014-Apr-10 08:33N 37°48' W 122°24'0 0.0
2014-Apr-10 07:33N 37°48' W 122°24'0 0.0
2014-Apr-10 06:33N 37°48' W 122°24'0 0.0
2014-Apr-10 05:34N 37°48' W 122°24'0 0.0
2014-Apr-10 04:33N 37°48' W 122°24'0 0.0
2014-Apr-10 03:33N 37°48' W 122°24'0 0.0
2014-Apr-10 02:34N 37°48' W 122°24'0 0.0
2014-Apr-10 01:33N 37°48' W 122°24'0 0.0
2014-Apr-10 00:33N 37°48' W 122°24'3 3.2
2014-Apr-09 23:33N 37°48' W 122°20'3 3.2
2014-Apr-09 22:33N 37°48' W 122°24'  

Dump ship's entire track history

sailing weather and tide predictions

P/v Golden Gate — WDE5665 — position and weather